sensor_id;sensor_type;location;lat;lon;timestamp;pressure;altitude;pressure_sealevel;temperature;humidity
49999;BME280;68071;45.062;7.356;2023-12-07T00:02:26;95029.97;;;0.46;66.40
49999;BME280;68071;45.062;7.356;2023-12-07T00:05:30;95031.75;;;0.13;69.06
49999;BME280;68071;45.062;7.356;2023-12-07T00:08:34;95032.34;;;-0.06;76.31
49999;BME280;68071;45.062;7.356;2023-12-07T00:11:38;95042.44;;;-0.56;81.60
49999;BME280;68071;45.062;7.356;2023-12-07T00:14:42;95035.56;;;-0.28;74.49
49999;BME280;68071;45.062;7.356;2023-12-07T00:17:46;95044.16;;;-0.39;76.27
49999;BME280;68071;45.062;7.356;2023-12-07T00:20:50;95031.91;;;0.05;70.09
49999;BME280;68071;45.062;7.356;2023-12-07T00:23:54;95038.50;;;-0.46;85.31
49999;BME280;68071;45.062;7.356;2023-12-07T00:26:58;95029.94;;;0.18;73.75
49999;BME280;68071;45.062;7.356;2023-12-07T00:30:02;95036.47;;;-0.37;75.96
49999;BME280;68071;45.062;7.356;2023-12-07T00:33:06;95042.78;;;-0.45;76.59
49999;BME280;68071;45.062;7.356;2023-12-07T00:36:10;95043.47;;;-0.23;74.04
49999;BME280;68071;45.062;7.356;2023-12-07T00:39:16;95041.56;;;-0.23;75.49
49999;BME280;68071;45.062;7.356;2023-12-07T00:42:20;95041.31;;;-0.67;85.63
49999;BME280;68071;45.062;7.356;2023-12-07T00:45:24;95051.94;;;0.00;69.21
49999;BME280;68071;45.062;7.356;2023-12-07T00:48:28;95051.38;;;-0.43;75.04
49999;BME280;68071;45.062;7.356;2023-12-07T00:51:32;95054.44;;;0.46;66.26
49999;BME280;68071;45.062;7.356;2023-12-07T00:54:36;95039.38;;;0.08;69.47
49999;BME280;68071;45.062;7.356;2023-12-07T00:57:40;95044.59;;;-0.12;71.73
49999;BME280;68071;45.062;7.356;2023-12-07T01:00:44;95047.44;;;-0.33;81.66
49999;BME280;68071;45.062;7.356;2023-12-07T01:03:48;95045.28;;;-0.27;75.52
49999;BME280;68071;45.062;7.356;2023-12-07T01:06:52;95049.59;;;-0.14;70.14
49999;BME280;68071;45.062;7.356;2023-12-07T01:09:56;95044.13;;;-0.26;72.76
49999;BME280;68071;45.062;7.356;2023-12-07T01:13:00;95053.88;;;-0.63;76.60
49999;BME280;68071;45.062;7.356;2023-12-07T01:16:05;95051.59;;;0.02;66.52
49999;BME280;68071;45.062;7.356;2023-12-07T01:19:09;95051.72;;;-0.32;72.38
49999;BME280;68071;45.062;7.356;2023-12-07T01:22:13;95061.69;;;-0.36;78.03
49999;BME280;68071;45.062;7.356;2023-12-07T01:25:17;95057.59;;;-0.80;80.09
49999;BME280;68071;45.062;7.356;2023-12-07T01:28:25;95061.69;;;-0.11;68.96
49999;BME280;68071;45.062;7.356;2023-12-07T01:31:29;95062.03;;;-0.38;71.85
49999;BME280;68071;45.062;7.356;2023-12-07T01:34:33;95065.53;;;-0.37;77.07
49999;BME280;68071;45.062;7.356;2023-12-07T01:37:39;95063.47;;;-0.78;79.34
49999;BME280;68071;45.062;7.356;2023-12-07T01:40:43;95065.41;;;-1.12;97.69
49999;BME280;68071;45.062;7.356;2023-12-07T01:43:47;95062.53;;;-0.94;87.43
49999;BME280;68071;45.062;7.356;2023-12-07T01:46:51;95069.06;;;-1.08;88.04
49999;BME280;68071;45.062;7.356;2023-12-07T01:49:55;95064.03;;;-1.52;92.94
49999;BME280;68071;45.062;7.356;2023-12-07T01:53:01;95066.53;;;-1.13;85.24
49999;BME280;68071;45.062;7.356;2023-12-07T01:56:07;95066.97;;;0.22;70.45
49999;BME280;68071;45.062;7.356;2023-12-07T01:59:11;95067.16;;;0.29;67.29
49999;BME280;68071;45.062;7.356;2023-12-07T02:02:15;95069.94;;;-0.45;76.84
49999;BME280;68071;45.062;7.356;2023-12-07T02:05:19;95066.19;;;-0.78;80.48
49999;BME280;68071;45.062;7.356;2023-12-07T02:08:24;95076.19;;;-1.03;86.73
49999;BME280;68071;45.062;7.356;2023-12-07T02:11:28;95071.47;;;-0.81;92.71
49999;BME280;68071;45.062;7.356;2023-12-07T02:14:32;95073.16;;;-0.89;87.61
49999;BME280;68071;45.062;7.356;2023-12-07T02:24:11;95071.84;;;-0.70;82.23
49999;BME280;68071;45.062;7.356;2023-12-07T02:27:15;95079.78;;;0.09;72.68
49999;BME280;68071;45.062;7.356;2023-12-07T02:30:19;95084.75;;;-0.18;73.84
49999;BME280;68071;45.062;7.356;2023-12-07T02:33:23;95079.25;;;-0.34;74.05
49999;BME280;68071;45.062;7.356;2023-12-07T02:36:28;95088.28;;;-0.42;75.47
49999;BME280;68071;45.062;7.356;2023-12-07T02:39:34;95090.66;;;-0.28;74.49
49999;BME280;68071;45.062;7.356;2023-12-07T02:42:39;95087.59;;;-0.02;70.53
49999;BME280;68071;45.062;7.356;2023-12-07T02:45:47;95085.88;;;0.19;68.59
49999;BME280;68071;45.062;7.356;2023-12-07T02:48:52;95075.31;;;0.29;67.11
49999;BME280;68071;45.062;7.356;2023-12-07T02:51:55;95088.16;;;-0.33;74.03
49999;BME280;68071;45.062;7.356;2023-12-07T02:54:59;95079.44;;;-0.26;73.16
49999;BME280;68071;45.062;7.356;2023-12-07T02:58:04;95081.72;;;-0.16;71.45
49999;BME280;68071;45.062;7.356;2023-12-07T03:01:08;95089.88;;;-0.28;72.89
49999;BME280;68071;45.062;7.356;2023-12-07T03:04:11;95085.22;;;-0.03;71.28
49999;BME280;68071;45.062;7.356;2023-12-07T03:07:16;95079.91;;;-0.24;72.29
49999;BME280;68071;45.062;7.356;2023-12-07T03:10:20;95088.03;;;-0.62;78.54
49999;BME280;68071;45.062;7.356;2023-12-07T03:13:24;95093.72;;;0.08;70.85
49999;BME280;68071;45.062;7.356;2023-12-07T03:16:28;95077.47;;;0.24;69.24
49999;BME280;68071;45.062;7.356;2023-12-07T03:19:32;95082.06;;;-0.30;75.24
49999;BME280;68071;45.062;7.356;2023-12-07T03:22:36;95088.63;;;-0.43;76.64
49999;BME280;68071;45.062;7.356;2023-12-07T03:25:40;95101.94;;;-0.63;78.71
49999;BME280;68071;45.062;7.356;2023-12-07T03:28:44;95089.88;;;-0.28;76.26
49999;BME280;68071;45.062;7.356;2023-12-07T03:31:47;95092.47;;;-0.44;81.47
49999;BME280;68071;45.062;7.356;2023-12-07T03:34:51;95098.00;;;-0.41;81.29
49999;BME280;68071;45.062;7.356;2023-12-07T03:37:55;95089.66;;;-0.48;84.09
49999;BME280;68071;45.062;7.356;2023-12-07T03:40:59;95083.75;;;-0.25;83.14
49999;BME280;68071;45.062;7.356;2023-12-07T03:44:03;95096.78;;;-0.43;82.85
49999;BME280;68071;45.062;7.356;2023-12-07T03:47:08;95098.47;;;-0.14;77.10
49999;BME280;68071;45.062;7.356;2023-12-07T03:50:12;95094.16;;;-0.27;78.24
49999;BME280;68071;45.062;7.356;2023-12-07T03:53:17;95089.84;;;-0.41;80.73
49999;BME280;68071;45.062;7.356;2023-12-07T03:56:28;95088.25;;;-0.67;81.48
49999;BME280;68071;45.062;7.356;2023-12-07T03:59:32;95087.13;;;-0.41;81.67
49999;BME280;68071;45.062;7.356;2023-12-07T04:02:40;95088.25;;;0.20;73.42
49999;BME280;68071;45.062;7.356;2023-12-07T04:05:44;95086.66;;;0.19;72.94
49999;BME280;68071;45.062;7.356;2023-12-07T04:08:48;95087.84;;;-0.19;75.85
49999;BME280;68071;45.062;7.356;2023-12-07T04:11:52;95089.66;;;-0.48;78.44
49999;BME280;68071;45.062;7.356;2023-12-07T04:14:56;95092.56;;;-0.04;75.80
49999;BME280;68071;45.062;7.356;2023-12-07T04:18:00;95093.72;;;0.08;72.95
49999;BME280;68071;45.062;7.356;2023-12-07T04:21:04;95093.84;;;-0.01;74.35
49999;BME280;68071;45.062;7.356;2023-12-07T04:24:11;95092.91;;;-0.42;80.07
49999;BME280;68071;45.062;7.356;2023-12-07T04:27:15;95096.19;;;-0.37;80.37
49999;BME280;68071;45.062;7.356;2023-12-07T04:30:19;95088.25;;;0.20;73.37
49999;BME280;68071;45.062;7.356;2023-12-07T04:33:22;95097.88;;;0.18;73.70
49999;BME280;68071;45.062;7.356;2023-12-07T04:36:26;95101.94;;;0.24;73.41
49999;BME280;68071;45.062;7.356;2023-12-07T04:39:30;95101.50;;;0.09;73.92
49999;BME280;68071;45.062;7.356;2023-12-07T04:42:34;95114.06;;;-0.23;77.43
49999;BME280;68071;45.062;7.356;2023-12-07T04:45:38;95121.41;;;-0.36;77.88
49999;BME280;68071;45.062;7.356;2023-12-07T04:48:42;95123.66;;;-0.51;79.27
49999;BME280;68071;45.062;7.356;2023-12-07T04:51:46;95119.00;;;-0.75;85.87
49999;BME280;68071;45.062;7.356;2023-12-07T04:54:50;95106.56;;;-0.64;83.49
49999;BME280;68071;45.062;7.356;2023-12-07T04:57:54;95102.75;;;-0.38;78.03
49999;BME280;68071;45.062;7.356;2023-12-07T05:00:58;95105.69;;;-0.55;79.08
49999;BME280;68071;45.062;7.356;2023-12-07T05:04:04;95100.88;;;-0.83;86.57
49999;BME280;68071;45.062;7.356;2023-12-07T05:07:08;95096.84;;;-0.65;83.13
49999;BME280;68071;45.062;7.356;2023-12-07T05:10:12;95095.88;;;-0.94;87.64
49999;BME280;68071;45.062;7.356;2023-12-07T05:13:16;95113.13;;;-0.65;80.74
49999;BME280;68071;45.062;7.356;2023-12-07T05:16:20;95113.84;;;-0.55;81.50
49999;BME280;68071;45.062;7.356;2023-12-07T05:19:27;95107.41;;;-0.13;78.66
49999;BME280;68071;45.062;7.356;2023-12-07T05:22:31;95110.56;;;-0.49;82.69
49999;BME280;68071;45.062;7.356;2023-12-07T05:25:35;95106.34;;;-0.71;84.87
49999;BME280;68071;45.062;7.356;2023-12-07T05:28:39;95108.41;;;-0.43;80.54
49999;BME280;68071;45.062;7.356;2023-12-07T05:31:43;95104.97;;;-0.65;83.47
49999;BME280;68071;45.062;7.356;2023-12-07T05:34:47;95103.75;;;-0.55;80.42
49999;BME280;68071;45.062;7.356;2023-12-07T05:37:51;95100.50;;;-0.23;77.66
49999;BME280;68071;45.062;7.356;2023-12-07T05:40:55;95101.84;;;-0.54;81.42
49999;BME280;68071;45.062;7.356;2023-12-07T05:43:59;95107.38;;;-0.51;79.52
49999;BME280;68071;45.062;7.356;2023-12-07T05:47:04;95112.09;;;-0.72;84.12
49999;BME280;68071;45.062;7.356;2023-12-07T05:50:08;95114.81;;;-0.72;81.63
49999;BME280;68071;45.062;7.356;2023-12-07T05:53:12;95126.75;;;-0.27;77.81
49999;BME280;68071;45.062;7.356;2023-12-07T05:56:19;95126.53;;;-0.35;77.30
49999;BME280;68071;45.062;7.356;2023-12-07T05:59:27;95129.19;;;-0.59;81.27
49999;BME280;68071;45.062;7.356;2023-12-07T06:02:31;95134.59;;;-0.72;80.88
49999;BME280;68071;45.062;7.356;2023-12-07T06:05:38;95140.31;;;-0.52;77.18
49999;BME280;68071;45.062;7.356;2023-12-07T06:08:43;95138.78;;;-0.74;79.41
49999;BME280;68071;45.062;7.356;2023-12-07T06:11:48;95141.72;;;-0.80;81.98
49999;BME280;68071;45.062;7.356;2023-12-07T06:14:52;95140.63;;;-0.54;77.38
49999;BME280;68071;45.062;7.356;2023-12-07T06:17:57;95145.38;;;-0.51;76.55
49999;BME280;68071;45.062;7.356;2023-12-07T06:21:02;95142.28;;;-0.74;79.83
49999;BME280;68071;45.062;7.356;2023-12-07T06:24:07;95148.72;;;-1.12;83.79
49999;BME280;68071;45.062;7.356;2023-12-07T06:27:11;95149.97;;;-1.31;86.04
49999;BME280;68071;45.062;7.356;2023-12-07T06:30:15;95160.41;;;-0.99;82.52
49999;BME280;68071;45.062;7.356;2023-12-07T06:33:19;95162.44;;;-0.63;78.15
49999;BME280;68071;45.062;7.356;2023-12-07T06:36:24;95160.72;;;-1.01;82.58
49999;BME280;68071;45.062;7.356;2023-12-07T06:39:30;95168.69;;;-0.50;76.35
49999;BME280;68071;45.062;7.356;2023-12-07T06:42:33;95157.75;;;-0.74;79.39
49999;BME280;68071;45.062;7.356;2023-12-07T06:45:38;95154.81;;;-0.82;79.37
49999;BME280;68071;45.062;7.356;2023-12-07T06:48:41;95158.47;;;-0.65;77.61
49999;BME280;68071;45.062;7.356;2023-12-07T06:51:45;95170.84;;;-0.43;75.99
49999;BME280;68071;45.062;7.356;2023-12-07T06:54:49;95182.44;;;-0.67;79.76
49999;BME280;68071;45.062;7.356;2023-12-07T06:57:53;95178.06;;;-0.59;80.52
49999;BME280;68071;45.062;7.356;2023-12-07T07:00:57;95182.34;;;-0.58;80.28
49999;BME280;68071;45.062;7.356;2023-12-07T07:04:01;95182.63;;;-0.39;79.59
49999;BME280;68071;45.062;7.356;2023-12-07T07:07:05;95187.59;;;-0.53;79.95
49999;BME280;68071;45.062;7.356;2023-12-07T07:10:09;95191.97;;;0.10;73.94
49999;BME280;68071;45.062;7.356;2023-12-07T07:13:14;95193.66;;;-0.10;79.30
49999;BME280;68071;45.062;7.356;2023-12-07T07:16:23;95198.75;;;-0.09;80.22
49999;BME280;68071;45.062;7.356;2023-12-07T07:19:26;95198.06;;;-0.18;83.88
49999;BME280;68071;45.062;7.356;2023-12-07T07:22:31;95210.75;;;-0.10;86.63
49999;BME280;68071;45.062;7.356;2023-12-07T07:25:35;95211.56;;;-0.55;94.53
49999;BME280;68071;45.062;7.356;2023-12-07T07:28:39;95210.75;;;-0.89;100.00
49999;BME280;68071;45.062;7.356;2023-12-07T07:31:44;95213.97;;;-0.75;100.00
49999;BME280;68071;45.062;7.356;2023-12-07T07:34:48;95211.69;;;-1.07;100.00
49999;BME280;68071;45.062;7.356;2023-12-07T07:37:52;95224.72;;;-0.79;100.00
49999;BME280;68071;45.062;7.356;2023-12-07T07:40:55;95233.59;;;-0.23;98.12
49999;BME280;68071;45.062;7.356;2023-12-07T07:43:59;95237.50;;;-0.46;100.00
49999;BME280;68071;45.062;7.356;2023-12-07T07:47:04;95239.19;;;-0.41;100.00
49999;BME280;68071;45.062;7.356;2023-12-07T07:50:08;95248.91;;;-0.06;97.05
49999;BME280;68071;45.062;7.356;2023-12-07T07:53:14;95251.78;;;0.35;93.92
49999;BME280;68071;45.062;7.356;2023-12-07T07:56:18;95258.56;;;0.78;92.84
49999;BME280;68071;45.062;7.356;2023-12-07T07:59:22;95266.47;;;0.96;89.74
49999;BME280;68071;45.062;7.356;2023-12-07T08:02:26;95278.28;;;1.00;88.17
49999;BME280;68071;45.062;7.356;2023-12-07T08:05:30;95287.31;;;1.16;89.22
49999;BME280;68071;45.062;7.356;2023-12-07T08:08:34;95291.13;;;1.40;86.45
49999;BME280;68071;45.062;7.356;2023-12-07T08:11:38;95292.75;;;1.57;93.78
49999;BME280;68071;45.062;7.356;2023-12-07T08:14:42;95297.06;;;1.87;88.67
49999;BME280;68071;45.062;7.356;2023-12-07T08:17:47;95295.22;;;1.91;90.67
49999;BME280;68071;45.062;7.356;2023-12-07T08:20:51;95299.94;;;1.78;91.57
49999;BME280;68071;45.062;7.356;2023-12-07T08:23:55;95298.69;;;2.04;91.96
49999;BME280;68071;45.062;7.356;2023-12-07T08:26:59;95298.88;;;2.27;69.08
49999;BME280;68071;45.062;7.356;2023-12-07T08:30:04;95311.69;;;2.55;63.03
49999;BME280;68071;45.062;7.356;2023-12-07T08:33:09;95316.78;;;2.72;71.54
49999;BME280;68071;45.062;7.356;2023-12-07T08:36:13;95313.31;;;2.76;64.17
49999;BME280;68071;45.062;7.356;2023-12-07T08:39:17;95307.09;;;2.75;64.02
49999;BME280;68071;45.062;7.356;2023-12-07T08:42:21;95302.84;;;2.94;72.17
49999;BME280;68071;45.062;7.356;2023-12-07T08:45:25;95302.22;;;3.00;59.26
49999;BME280;68071;45.062;7.356;2023-12-07T08:48:29;95297.06;;;3.15;53.53
49999;BME280;68071;45.062;7.356;2023-12-07T08:51:34;95298.53;;;3.28;57.02
49999;BME280;68071;45.062;7.356;2023-12-07T08:54:38;95296.81;;;3.40;55.52
49999;BME280;68071;45.062;7.356;2023-12-07T08:57:42;95305.69;;;3.53;53.96
49999;BME280;68071;45.062;7.356;2023-12-07T09:00:46;95306.63;;;3.60;54.24
49999;BME280;68071;45.062;7.356;2023-12-07T09:03:50;95305.81;;;3.60;54.61
49999;BME280;68071;45.062;7.356;2023-12-07T09:06:54;95299.09;;;3.73;55.22
49999;BME280;68071;45.062;7.356;2023-12-07T09:09:58;95306.56;;;3.76;54.78
49999;BME280;68071;45.062;7.356;2023-12-07T09:13:02;95319.66;;;3.87;58.77
49999;BME280;68071;45.062;7.356;2023-12-07T09:16:06;95318.50;;;3.88;58.31
49999;BME280;68071;45.062;7.356;2023-12-07T09:19:10;95319.13;;;4.01;55.71
49999;BME280;68071;45.062;7.356;2023-12-07T09:22:15;95318.72;;;3.99;59.28
49999;BME280;68071;45.062;7.356;2023-12-07T09:25:19;95311.81;;;4.05;60.33
49999;BME280;68071;45.062;7.356;2023-12-07T09:28:23;95309.91;;;4.09;59.02
49999;BME280;68071;45.062;7.356;2023-12-07T09:31:27;95314.09;;;4.22;56.98
49999;BME280;68071;45.062;7.356;2023-12-07T09:34:31;95308.00;;;4.33;53.87
49999;BME280;68071;45.062;7.356;2023-12-07T09:37:35;95313.28;;;4.45;49.32
49999;BME280;68071;45.062;7.356;2023-12-07T09:40:39;95321.69;;;4.56;49.10
49999;BME280;68071;45.062;7.356;2023-12-07T09:43:43;95311.16;;;4.58;48.87
49999;BME280;68071;45.062;7.356;2023-12-07T09:46:47;95301.56;;;4.68;48.86
49999;BME280;68071;45.062;7.356;2023-12-07T09:49:51;95312.94;;;4.70;49.59
49999;BME280;68071;45.062;7.356;2023-12-07T09:52:57;95317.25;;;4.71;48.84
49999;BME280;68071;45.062;7.356;2023-12-07T09:56:02;95314.81;;;5.16;48.04
49999;BME280;68071;45.062;7.356;2023-12-07T09:59:06;95315.34;;;4.98;47.25
49999;BME280;68071;45.062;7.356;2023-12-07T10:02:10;95319.97;;;4.94;47.92
49999;BME280;68071;45.062;7.356;2023-12-07T10:05:15;95321.19;;;4.97;48.33
49999;BME280;68071;45.062;7.356;2023-12-07T10:08:32;95325.28;;;5.07;47.42
49999;BME280;68071;45.062;7.356;2023-12-07T10:11:36;95314.22;;;5.03;47.91
49999;BME280;68071;45.062;7.356;2023-12-07T10:14:40;95312.41;;;5.11;48.05
49999;BME280;68071;45.062;7.356;2023-12-07T10:17:50;95311.41;;;5.23;48.44
49999;BME280;68071;45.062;7.356;2023-12-07T10:20:54;95308.88;;;5.10;46.96
49999;BME280;68071;45.062;7.356;2023-12-07T10:23:58;95304.25;;;5.14;47.71
49999;BME280;68071;45.062;7.356;2023-12-07T10:27:02;95304.94;;;5.08;47.32
49999;BME280;68071;45.062;7.356;2023-12-07T10:30:11;95310.34;;;5.04;46.83
49999;BME280;68071;45.062;7.356;2023-12-07T10:33:16;95307.00;;;5.14;47.13
49999;BME280;68071;45.062;7.356;2023-12-07T10:36:20;95310.72;;;5.03;47.74
49999;BME280;68071;45.062;7.356;2023-12-07T10:39:24;95313.53;;;5.33;46.87
49999;BME280;68071;45.062;7.356;2023-12-07T10:42:31;95310.31;;;5.27;46.26
49999;BME280;68071;45.062;7.356;2023-12-07T10:45:36;95302.81;;;5.24;47.11
49999;BME280;68071;45.062;7.356;2023-12-07T10:48:44;95307.75;;;5.15;46.01
49999;BME280;68071;45.062;7.356;2023-12-07T10:52:08;95305.88;;;5.19;44.99
49999;BME280;68071;45.062;7.356;2023-12-07T10:55:17;95298.34;;;5.12;44.84
49999;BME280;68071;45.062;7.356;2023-12-07T10:58:24;95288.75;;;5.26;47.01
49999;BME280;68071;45.062;7.356;2023-12-07T11:01:29;95286.22;;;5.13;46.32
49999;BME280;68071;45.062;7.356;2023-12-07T11:04:35;95278.84;;;5.18;44.63
49999;BME280;68071;45.062;7.356;2023-12-07T11:07:56;95276.13;;;5.18;44.25
49999;BME280;68071;45.062;7.356;2023-12-07T11:11:21;95261.03;;;5.31;43.73
49999;BME280;68071;45.062;7.356;2023-12-07T11:14:29;95264.66;;;5.39;43.24
49999;BME280;68071;45.062;7.356;2023-12-07T11:17:49;95262.38;;;5.44;42.72
49999;BME280;68071;45.062;7.356;2023-12-07T11:20:57;95260.97;;;5.58;42.83
49999;BME280;68071;45.062;7.356;2023-12-07T11:24:03;95273.19;;;5.64;42.42
49999;BME280;68071;45.062;7.356;2023-12-07T11:27:08;95278.63;;;5.60;42.86
49999;BME280;68071;45.062;7.356;2023-12-07T11:30:13;95265.31;;;5.93;42.78
49999;BME280;68071;45.062;7.356;2023-12-07T11:33:19;95267.69;;;5.98;42.36
49999;BME280;68071;45.062;7.356;2023-12-07T11:36:24;95260.44;;;5.79;42.93
49999;BME280;68071;45.062;7.356;2023-12-07T11:39:39;95265.41;;;5.70;43.85
49999;BME280;68071;45.062;7.356;2023-12-07T11:42:46;95264.19;;;5.64;43.92
49999;BME280;68071;45.062;7.356;2023-12-07T11:45:49;95258.03;;;5.74;44.05
49999;BME280;68071;45.062;7.356;2023-12-07T11:48:54;95255.56;;;5.99;44.09
49999;BME280;68071;45.062;7.356;2023-12-07T11:51:59;95250.38;;;5.56;45.61
49999;BME280;68071;45.062;7.356;2023-12-07T11:55:03;95241.59;;;5.78;44.93
49999;BME280;68071;45.062;7.356;2023-12-07T11:58:12;95239.84;;;5.58;44.89
49999;BME280;68071;45.062;7.356;2023-12-07T12:01:16;95232.38;;;5.59;44.07
49999;BME280;68071;45.062;7.356;2023-12-07T12:04:23;95227.81;;;5.67;44.84
49999;BME280;68071;45.062;7.356;2023-12-07T12:07:27;95222.53;;;5.54;45.69
49999;BME280;68071;45.062;7.356;2023-12-07T12:10:31;95228.72;;;5.48;45.35
49999;BME280;68071;45.062;7.356;2023-12-07T12:13:36;95225.41;;;5.31;45.95
49999;BME280;68071;45.062;7.356;2023-12-07T12:16:40;95237.47;;;5.26;48.06
49999;BME280;68071;45.062;7.356;2023-12-07T12:19:44;95252.97;;;5.45;48.54
49999;BME280;68071;45.062;7.356;2023-12-07T12:22:49;95259.16;;;5.69;47.83
49999;BME280;68071;45.062;7.356;2023-12-07T12:25:54;95247.63;;;5.56;50.26
49999;BME280;68071;45.062;7.356;2023-12-07T12:28:58;95246.59;;;5.34;50.81
49999;BME280;68071;45.062;7.356;2023-12-07T12:32:02;95237.63;;;5.37;50.74
49999;BME280;68071;45.062;7.356;2023-12-07T12:35:08;95230.97;;;5.38;50.77
49999;BME280;68071;45.062;7.356;2023-12-07T12:38:12;95243.41;;;5.32;50.37
49999;BME280;68071;45.062;7.356;2023-12-07T12:41:20;95244.41;;;5.47;50.08
49999;BME280;68071;45.062;7.356;2023-12-07T12:44:25;95238.44;;;5.41;50.24
49999;BME280;68071;45.062;7.356;2023-12-07T12:47:29;95232.88;;;5.34;50.53
49999;BME280;68071;45.062;7.356;2023-12-07T12:50:37;95240.09;;;5.46;50.56
49999;BME280;68071;45.062;7.356;2023-12-07T12:53:45;95233.94;;;5.56;49.25
49999;BME280;68071;45.062;7.356;2023-12-07T12:56:52;95229.13;;;5.80;49.93
49999;BME280;68071;45.062;7.356;2023-12-07T12:59:56;95235.63;;;5.68;49.96
49999;BME280;68071;45.062;7.356;2023-12-07T13:03:02;95229.66;;;5.59;50.82
49999;BME280;68071;45.062;7.356;2023-12-07T13:06:07;95217.16;;;5.62;50.23
49999;BME280;68071;45.062;7.356;2023-12-07T13:09:10;95224.56;;;5.61;49.42
49999;BME280;68071;45.062;7.356;2023-12-07T13:12:14;95228.84;;;5.55;50.32
49999;BME280;68071;45.062;7.356;2023-12-07T13:15:18;95221.34;;;5.52;51.98
49999;BME280;68071;45.062;7.356;2023-12-07T13:18:22;95226.25;;;6.03;50.04
49999;BME280;68071;45.062;7.356;2023-12-07T13:21:26;95226.91;;;5.93;50.77
49999;BME280;68071;45.062;7.356;2023-12-07T13:24:30;95223.31;;;5.85;51.09
49999;BME280;68071;45.062;7.356;2023-12-07T13:27:34;95221.94;;;6.02;50.54
49999;BME280;68071;45.062;7.356;2023-12-07T13:30:39;95224.06;;;5.86;52.31
49999;BME280;68071;45.062;7.356;2023-12-07T13:33:43;95227.72;;;6.35;46.03
49999;BME280;68071;45.062;7.356;2023-12-07T13:36:47;95224.00;;;6.13;45.74
49999;BME280;68071;45.062;7.356;2023-12-07T13:39:51;95228.00;;;5.88;46.19
49999;BME280;68071;45.062;7.356;2023-12-07T13:43:01;95227.66;;;5.90;46.68
49999;BME280;68071;45.062;7.356;2023-12-07T13:46:05;95224.66;;;6.02;45.71
49999;BME280;68071;45.062;7.356;2023-12-07T13:49:09;95226.38;;;5.80;45.80
49999;BME280;68071;45.062;7.356;2023-12-07T13:52:13;95226.53;;;5.60;46.35
49999;BME280;68071;45.062;7.356;2023-12-07T13:55:20;95225.50;;;5.72;46.59
49999;BME280;68071;45.062;7.356;2023-12-07T13:58:23;95232.44;;;5.97;46.06
49999;BME280;68071;45.062;7.356;2023-12-07T14:01:27;95227.41;;;5.68;46.59
49999;BME280;68071;45.062;7.356;2023-12-07T14:04:31;95232.59;;;5.77;46.37
49999;BME280;68071;45.062;7.356;2023-12-07T14:07:35;95224.34;;;5.73;46.34
49999;BME280;68071;45.062;7.356;2023-12-07T14:10:39;95221.50;;;5.66;46.21
49999;BME280;68071;45.062;7.356;2023-12-07T14:13:44;95225.75;;;5.60;45.91
49999;BME280;68071;45.062;7.356;2023-12-07T14:16:49;95212.03;;;5.94;44.61
49999;BME280;68071;45.062;7.356;2023-12-07T14:19:53;95210.66;;;5.77;44.58
49999;BME280;68071;45.062;7.356;2023-12-07T14:22:57;95218.50;;;5.79;45.35
49999;BME280;68071;45.062;7.356;2023-12-07T14:26:07;95225.09;;;5.70;45.67
49999;BME280;68071;45.062;7.356;2023-12-07T14:29:11;95230.66;;;4.86;55.78
49999;BME280;68071;45.062;7.356;2023-12-07T14:32:19;95221.38;;;4.17;60.22
49999;BME280;68071;45.062;7.356;2023-12-07T14:35:24;95220.16;;;3.72;64.37
49999;BME280;68071;45.062;7.356;2023-12-07T14:38:28;95220.59;;;3.54;64.53
49999;BME280;68071;45.062;7.356;2023-12-07T14:41:32;95225.66;;;2.77;81.10
49999;BME280;68071;45.062;7.356;2023-12-07T14:44:36;95236.13;;;3.11;74.59
49999;BME280;68071;45.062;7.356;2023-12-07T14:47:40;95229.88;;;3.10;74.60
49999;BME280;68071;45.062;7.356;2023-12-07T14:50:44;95230.19;;;2.05;89.98
49999;BME280;68071;45.062;7.356;2023-12-07T14:53:48;95241.59;;;2.11;91.64
49999;BME280;68071;45.062;7.356;2023-12-07T14:56:52;95244.16;;;2.36;95.66
49999;BME280;68071;45.062;7.356;2023-12-07T14:59:56;95251.81;;;2.62;81.39
49999;BME280;68071;45.062;7.356;2023-12-07T15:03:01;95247.16;;;2.15;94.59
49999;BME280;68071;45.062;7.356;2023-12-07T15:06:06;95253.69;;;1.81;100.00
49999;BME280;68071;45.062;7.356;2023-12-07T15:09:10;95251.28;;;1.64;100.00
49999;BME280;68071;45.062;7.356;2023-12-07T15:12:15;95268.88;;;1.95;95.55
49999;BME280;68071;45.062;7.356;2023-12-07T15:15:20;95270.38;;;2.08;90.56
49999;BME280;68071;45.062;7.356;2023-12-07T15:18:24;95274.41;;;1.42;100.00
49999;BME280;68071;45.062;7.356;2023-12-07T15:21:29;95276.97;;;1.22;100.00
49999;BME280;68071;45.062;7.356;2023-12-07T15:24:33;95259.00;;;1.33;100.00
49999;BME280;68071;45.062;7.356;2023-12-07T15:27:37;95264.06;;;1.47;100.00
49999;BME280;68071;45.062;7.356;2023-12-07T15:30:40;95269.50;;;1.76;89.01
49999;BME280;68071;45.062;7.356;2023-12-07T15:33:45;95270.88;;;1.54;92.33
49999;BME280;68071;45.062;7.356;2023-12-07T15:36:48;95264.66;;;1.00;100.00
49999;BME280;68071;45.062;7.356;2023-12-07T15:39:52;95273.75;;;0.79;100.00
49999;BME280;68071;45.062;7.356;2023-12-07T15:42:56;95273.91;;;1.80;83.82
49999;BME280;68071;45.062;7.356;2023-12-07T15:46:00;95266.59;;;2.29;70.96
49999;BME280;68071;45.062;7.356;2023-12-07T15:49:07;95268.44;;;1.36;98.02
49999;BME280;68071;45.062;7.356;2023-12-07T15:52:10;95269.56;;;0.69;100.00
49999;BME280;68071;45.062;7.356;2023-12-07T15:55:14;95280.78;;;2.51;66.61
49999;BME280;68071;45.062;7.356;2023-12-07T15:58:18;95283.78;;;2.97;57.95
49999;BME280;68071;45.062;7.356;2023-12-07T16:01:22;95286.84;;;1.84;73.43
49999;BME280;68071;45.062;7.356;2023-12-07T16:04:26;95289.72;;;1.05;97.62
49999;BME280;68071;45.062;7.356;2023-12-07T16:07:30;95294.94;;;1.80;80.27
49999;BME280;68071;45.062;7.356;2023-12-07T16:10:34;95315.09;;;2.84;59.94
49999;BME280;68071;45.062;7.356;2023-12-07T16:13:38;95308.25;;;2.42;65.26
49999;BME280;68071;45.062;7.356;2023-12-07T16:16:45;95310.84;;;1.78;78.77
49999;BME280;68071;45.062;7.356;2023-12-07T16:19:51;95307.72;;;1.63;76.57
49999;BME280;68071;45.062;7.356;2023-12-07T16:22:55;95316.53;;;1.32;82.21
49999;BME280;68071;45.062;7.356;2023-12-07T16:25:59;95323.97;;;1.47;78.13
49999;BME280;68071;45.062;7.356;2023-12-07T16:29:12;95337.47;;;1.03;91.83
49999;BME280;68071;45.062;7.356;2023-12-07T16:32:16;95335.25;;;1.33;81.70